Time;durP1;ratioP1;P1;durP2;ratioP2;P2;SDS_P1;SDS_P2;PMS_P1;PMS_P2;Temp;Humidity;BMP_temperature;BMP_pressure;BME280_temperature;BME280_humidity;BME280_pressure;Samples;Min_cycle;Max_cycle;Signal;HPM_P1;HPM_P2
2022/05/31 00:00:10;;;;;;;5.15;4.50;;;;;;;;;;517784;28;1167;-82
2022/05/31 00:00:25;;;;;;;5.15;4.45;;;;;;;;;;515838;28;1364;-82
2022/05/31 00:00:41;;;;;;;5.85;4.60;;;;;;;;;;515900;28;1289;-82
2022/05/31 00:00:57;;;;;;;5.88;4.57;;;;;;;;;;516444;28;945;-82
2022/05/31 00:01:13;;;;;;;5.50;4.60;;;;;;;;;;517787;28;901;-81
2022/05/31 00:01:29;;;;;;;5.10;4.55;;;;;;;;;;516248;28;1508;-82
2022/05/31 00:01:46;;;;;;;4.97;4.47;;;;;;;;;;517490;28;978;-81
2022/05/31 00:02:03;;;;;;;5.10;4.60;;;;;;;;;;517534;28;1158;-81
2022/05/31 00:02:21;;;;;;;6.55;4.47;;;;;;;;;;517559;28;877;-82
2022/05/31 00:02:37;;;;;;;6.80;4.70;;;;;;;;;;518955;28;1532;-81
2022/05/31 00:02:55;;;;;;;6.38;4.82;;;;;;;;;;519410;28;1279;-81
2022/05/31 00:03:10;;;;;;;5.80;4.72;;;;;;;;;;519820;28;865;-81
2022/05/31 00:03:26;;;;;;;5.60;4.82;;;;;;;;;;519852;28;1373;-81
2022/05/31 00:03:41;;;;;;;6.23;5.00;;;;;;;;;;519703;28;1299;-81
2022/05/31 00:03:57;;;;;;;5.77;4.90;;;;;;;;;;519681;28;1280;-81
2022/05/31 00:04:12;;;;;;;5.17;4.67;;;;;;;;;;519734;28;1278;-81
2022/05/31 00:04:28;;;;;;;5.10;4.60;;;;;;;;;;520491;28;1405;-82
2022/05/31 00:04:43;;;;;;;5.45;4.82;;;;;;;;;;521899;28;1048;-82
2022/05/31 00:04:59;;;;;;;6.10;4.87;;;;;;;;;;519554;28;1329;-81
2022/05/31 00:05:15;;;;;;;6.10;4.80;;;;;;;;;;517642;28;1305;-81
2022/05/31 00:05:31;;;;;;;5.90;4.90;;;;;;;;;;515271;28;1208;-82
2022/05/31 00:05:47;;;;;;;5.88;5.00;;;;;;;;;;513254;28;1407;-81
2022/05/31 00:06:02;;;;;;;7.00;4.97;;;;;;;;;;511116;29;1294;-81
2022/05/31 00:06:18;;;;;;;7.53;5.03;;;;;;;;;;510941;29;1368;-81
2022/05/31 00:06:33;;;;;;;5.77;5.03;;;;;;;;;;511504;29;925;-81
2022/05/31 00:06:49;;;;;;;5.30;4.80;;;;;;;;;;512221;28;1103;-81
2022/05/31 00:07:05;;;;;;;5.50;4.80;;;;;;;;;;512311;28;1197;-82
2022/05/31 00:07:20;;;;;;;6.17;4.70;;;;;;;;;;512411;28;1184;-82
2022/05/31 00:07:37;;;;;;;5.65;4.72;;;;;;;;;;514166;28;1008;-81
2022/05/31 00:07:53;;;;;;;5.35;4.85;;;;;;;;;;514600;28;1238;-82
2022/05/31 00:08:08;;;;;;;5.25;4.75;;;;;;;;;;515872;28;1149;-82
2022/05/31 00:08:24;;;;;;;5.63;4.70;;;;;;;;;;515774;28;1290;-82
2022/05/31 00:08:39;;;;;;;5.87;4.53;;;;;;;;;;513754;28;1240;-82
2022/05/31 00:08:54;;;;;;;5.15;4.38;;;;;;;;;;513680;28;1252;-81
2022/05/31 00:09:10;;;;;;;6.03;4.70;;;;;;;;;;515442;28;1163;-81
2022/05/31 00:09:26;;;;;;;6.03;4.70;;;;;;;;;;515536;28;1260;-81
2022/05/31 00:09:42;;;;;;;5.22;4.63;;;;;;;;;;515335;28;1041;-81
2022/05/31 00:09:57;;;;;;;5.40;4.63;;;;;;;;;;515930;28;1000;-82
2022/05/31 00:10:15;;;;;;;6.93;4.57;;;;;;;;;;516381;28;1280;-82
2022/05/31 00:10:30;;;;;;;7.57;4.70;;;;;;;;;;518086;28;1075;-82
2022/05/31 00:10:46;;;;;;;5.53;4.47;;;;;;;;;;518924;28;1128;-81
2022/05/31 00:11:03;;;;;;;4.63;4.13;;;;;;;;;;517966;28;1208;-82
2022/05/31 00:11:19;;;;;;;5.18;4.20;;;;;;;;;;516508;28;1390;-81
2022/05/31 00:11:36;;;;;;;4.85;4.22;;;;;;;;;;517723;28;1348;-81
2022/05/31 00:11:52;;;;;;;4.60;4.20;;;;;;;;;;517860;28;873;-81
2022/05/31 00:12:08;;;;;;;4.40;4.00;;;;;;;;;;519187;28;889;-82
2022/05/31 00:12:24;;;;;;;4.82;3.92;;;;;;;;;;517753;28;1343;-81
2022/05/31 00:12:40;;;;;;;5.57;4.10;;;;;;;;;;515724;28;1462;-81
2022/05/31 00:12:55;;;;;;;5.45;4.25;;;;;;;;;;515996;28;1400;-81
2022/05/31 00:13:10;;;;;;;5.28;4.30;;;;;;;;;;516821;28;1398;-82
2022/05/31 00:13:27;;;;;;;5.43;4.40;;;;;;;;;;518747;28;1769;-81
2022/05/31 00:13:42;;;;;;;5.75;4.40;;;;;;;;;;518001;28;1386;-82
2022/05/31 00:13:58;;;;;;;5.53;4.10;;;;;;;;;;517948;28;1987;-82
2022/05/31 00:14:14;;;;;;;4.90;4.10;;;;;;;;;;516135;28;1312;-81
2022/05/31 00:14:30;;;;;;;4.55;4.10;;;;;;;;;;518052;28;1410;-83
2022/05/31 00:14:45;;;;;;;4.80;4.13;;;;;;;;;;518153;28;873;-82
2022/05/31 00:15:02;;;;;;;5.73;4.47;;;;;;;;;;516668;28;1585;-82
2022/05/31 00:15:19;;;;;;;5.95;4.57;;;;;;;;;;517154;28;1075;-82
2022/05/31 00:15:34;;;;;;;5.63;4.40;;;;;;;;;;518147;28;1258;-81
2022/05/31 00:15:50;;;;;;;5.23;4.33;;;;;;;;;;518208;28;921;-81
2022/05/31 00:16:06;;;;;;;5.75;4.25;;;;;;;;;;516013;28;1169;-82
2022/05/31 00:16:21;;;;;;;5.45;4.30;;;;;;;;;;516802;28;798;-82
2022/05/31 00:16:37;;;;;;;5.07;4.30;;;;;;;;;;516047;28;1135;-81
2022/05/31 00:16:53;;;;;;;6.03;4.50;;;;;;;;;;516531;28;1236;-81
2022/05/31 00:17:08;;;;;;;6.22;4.40;;;;;;;;;;518505;28;1359;-82
2022/05/31 00:17:24;;;;;;;5.43;4.30;;;;;;;;;;520445;28;1145;-81
2022/05/31 00:17:41;;;;;;;5.22;4.22;;;;;;;;;;520029;28;1358;-82
2022/05/31 00:17:57;;;;;;;5.45;4.28;;;;;;;;;;517994;28;1260;-82
2022/05/31 00:18:13;;;;;;;5.60;4.30;;;;;;;;;;518023;28;1249;-82
2022/05/31 00:18:28;;;;;;;5.68;4.32;;;;;;;;;;518202;28;871;-82
2022/05/31 00:18:44;;;;;;;5.03;4.40;;;;;;;;;;518322;28;905;-82
2022/05/31 00:18:59;;;;;;;4.75;4.25;;;;;;;;;;518225;28;941;-82
2022/05/31 00:19:17;;;;;;;4.80;3.90;;;;;;;;;;516853;28;1261;-82
2022/05/31 00:19:32;;;;;;;4.88;4.00;;;;;;;;;;518928;28;1476;-82
2022/05/31 00:19:48;;;;;;;4.60;4.10;;;;;;;;;;520892;28;1031;-82
2022/05/31 00:20:05;;;;;;;4.53;4.07;;;;;;;;;;522988;28;917;-82
2022/05/31 00:20:20;;;;;;;5.10;4.25;;;;;;;;;;524249;28;1246;-82
2022/05/31 00:20:36;;;;;;;5.37;4.20;;;;;;;;;;524463;28;818;-82
2022/05/31 00:20:51;;;;;;;4.93;4.00;;;;;;;;;;524429;28;1477;-82
2022/05/31 00:21:07;;;;;;;4.63;4.00;;;;;;;;;;522528;28;1370;-82
2022/05/31 00:21:36;;;;;;;5.72;4.30;;;;;;;;;;520164;28;1345;-82
2022/05/31 00:22:18;;;;;;;5.45;4.30;;;;;;;;;;518049;28;929;-82
2022/05/31 00:22:35;;;;;;;4.95;4.05;;;;;;;;;;518118;28;1083;-82
2022/05/31 00:22:52;;;;;;;4.65;4.15;;;;;;;;;;518181;28;1344;-82
2022/05/31 00:23:08;;;;;;;4.90;4.20;;;;;;;;;;520144;28;1634;-82
2022/05/31 00:23:23;;;;;;;5.43;4.32;;;;;;;;;;520142;28;1398;-82
2022/05/31 00:23:41;;;;;;;4.97;4.23;;;;;;;;;;518119;28;1162;-81
2022/05/31 00:23:56;;;;;;;4.50;4.07;;;;;;;;;;515975;28;1343;-81
2022/05/31 00:24:17;;;;;;;4.87;4.03;;;;;;;;;;516226;28;831;-81
2022/05/31 00:24:33;;;;;;;5.47;4.07;;;;;;;;;;516026;28;1124;-82
2022/05/31 00:24:48;;;;;;;5.15;4.10;;;;;;;;;;515868;28;1419;-81
2022/05/31 00:25:05;;;;;;;4.87;4.10;;;;;;;;;;516216;28;890;-81
2022/05/31 00:25:21;;;;;;;5.47;4.10;;;;;;;;;;515259;28;1362;-82
2022/05/31 00:25:36;;;;;;;5.10;4.10;;;;;;;;;;513789;28;1245;-81
2022/05/31 00:25:52;;;;;;;5.03;4.20;;;;;;;;;;516763;28;1177;-81
2022/05/31 00:26:08;;;;;;;5.05;4.10;;;;;;;;;;517732;28;877;-82
2022/05/31 00:26:23;;;;;;;4.97;4.10;;;;;;;;;;517497;28;999;-81
2022/05/31 00:26:40;;;;;;;5.38;4.05;;;;;;;;;;518193;28;1175;-81
2022/05/31 00:26:56;;;;;;;5.07;3.90;;;;;;;;;;517615;28;1252;-81
2022/05/31 00:27:14;;;;;;;4.55;4.00;;;;;;;;;;517692;28;826;-81
2022/05/31 00:27:29;;;;;;;5.35;4.25;;;;;;;;;;518700;28;1391;-81
2022/05/31 00:27:45;;;;;;;5.73;4.30;;;;;;;;;;518729;28;1265;-81
2022/05/31 00:28:00;;;;;;;5.10;4.20;;;;;;;;;;517681;28;1357;-81
2022/05/31 00:28:15;;;;;;;5.30;4.07;;;;;;;;;;517599;28;953;-81
2022/05/31 00:28:31;;;;;;;5.03;4.10;;;;;;;;;;517652;28;925;-81
2022/05/31 00:28:47;;;;;;;6.40;4.43;;;;;;;;;;517488;28;1266;-81
2022/05/31 00:29:02;;;;;;;7.10;4.57;;;;;;;;;;517660;28;1338;-81
2022/05/31 00:29:18;;;;;;;6.57;4.57;;;;;;;;;;517323;28;1501;-81
2022/05/31 00:29:34;;;;;;;6.27;4.37;;;;;;;;;;515512;28;1140;-81
2022/05/31 00:29:49;;;;;;;5.97;4.35;;;;;;;;;;516051;28;850;-81
2022/05/31 00:30:07;;;;;;;6.15;4.47;;;;;;;;;;515442;28;1267;-81
2022/05/31 00:30:23;;;;;;;5.85;4.28;;;;;;;;;;516739;28;1048;-81
2022/05/31 00:30:39;;;;;;;6.97;4.50;;;;;;;;;;517921;28;827;-81
2022/05/31 00:30:54;;;;;;;6.95;4.63;;;;;;;;;;518380;28;941;-81
2022/05/31 00:31:09;;;;;;;5.67;4.43;;;;;;;;;;519005;28;807;-82
2022/05/31 00:31:25;;;;;;;4.82;4.30;;;;;;;;;;521114;28;897;-81
2022/05/31 00:31:45;;;;;;;4.90;4.30;;;;;;;;;;520948;28;1277;-82
2022/05/31 00:32:02;;;;;;;5.32;4.20;;;;;;;;;;523756;28;968;-81
2022/05/31 00:32:22;;;;;;;5.05;4.03;;;;;;;;;;524336;28;861;-81
2022/05/31 00:32:41;;;;;;;5.35;4.00;;;;;;;;;;522343;28;1422;-81
2022/05/31 00:32:56;;;;;;;5.03;4.28;;;;;;;;;;520320;28;1250;-81
2022/05/31 00:33:11;;;;;;;5.93;4.53;;;;;;;;;;518355;28;1143;-81
2022/05/31 00:33:27;;;;;;;5.90;4.40;;;;;;;;;;518232;28;1150;-81
2022/05/31 00:33:42;;;;;;;5.07;4.32;;;;;;;;;;516157;28;1261;-81
2022/05/31 00:33:58;;;;;;;5.63;4.40;;;;;;;;;;514037;28;1911;-81
2022/05/31 00:34:15;;;;;;;5.75;4.20;;;;;;;;;;511982;28;1215;-81
2022/05/31 00:34:32;;;;;;;5.63;4.18;;;;;;;;;;510219;28;1346;-81
2022/05/31 00:34:50;;;;;;;5.10;4.15;;;;;;;;;;512083;28;1236;-81
2022/05/31 00:35:10;;;;;;;4.75;4.00;;;;;;;;;;514029;28;1249;-81
2022/05/31 00:35:29;;;;;;;5.22;4.30;;;;;;;;;;515882;28;1276;-81
2022/05/31 00:35:46;;;;;;;4.70;4.10;;;;;;;;;;514121;28;1306;-81
2022/05/31 00:36:02;;;;;;;4.82;4.15;;;;;;;;;;514851;28;1278;-81
2022/05/31 00:36:17;;;;;;;5.10;4.40;;;;;;;;;;515885;28;1203;-81
2022/05/31 00:36:33;;;;;;;4.80;4.23;;;;;;;;;;516059;28;932;-80
2022/05/31 00:36:49;;;;;;;4.93;4.10;;;;;;;;;;516058;28;1302;-81
2022/05/31 00:37:05;;;;;;;5.40;4.20;;;;;;;;;;516020;28;853;-82
2022/05/31 00:37:22;;;;;;;5.20;3.90;;;;;;;;;;517270;28;874;-81
2022/05/31 00:37:37;;;;;;;5.13;3.97;;;;;;;;;;515692;28;1214;-81
2022/05/31 00:37:54;;;;;;;4.70;4.10;;;;;;;;;;518047;28;830;-81
2022/05/31 00:38:10;;;;;;;4.43;4.00;;;;;;;;;;518828;28;1362;-81
2022/05/31 00:38:25;;;;;;;5.13;4.00;;;;;;;;;;520416;28;908;-81
2022/05/31 00:38:40;;;;;;;5.10;4.10;;;;;;;;;;518981;28;1512;-81
2022/05/31 00:38:56;;;;;;;5.87;4.10;;;;;;;;;;520335;28;1012;-81
2022/05/31 00:39:12;;;;;;;6.40;4.20;;;;;;;;;;520219;28;1280;-81
2022/05/31 00:39:27;;;;;;;5.30;4.30;;;;;;;;;;520928;28;853;-81
2022/05/31 00:39:43;;;;;;;5.10;4.37;;;;;;;;;;520034;28;1351;-81
2022/05/31 00:39:59;;;;;;;5.20;4.40;;;;;;;;;;520137;28;944;-81
2022/05/31 00:40:17;;;;;;;6.27;4.50;;;;;;;;;;518016;28;1156;-81
2022/05/31 00:40:34;;;;;;;5.75;4.40;;;;;;;;;;518112;28;1327;-81
2022/05/31 00:40:49;;;;;;;4.82;4.20;;;;;;;;;;516025;28;1383;-81
2022/05/31 00:41:25;;;;;;;5.20;4.20;;;;;;;;;;516090;28;1259;-80
2022/05/31 00:41:41;;;;;;;5.25;4.32;;;;;;;;;;517744;28;924;-81
2022/05/31 00:42:01;;;;;;;5.93;4.40;;;;;;;;;;518353;28;909;-81
2022/05/31 00:42:20;;;;;;;4.97;3.90;;;;;;;;;;520399;28;1402;-81
2022/05/31 00:42:53;;;;;;;5.40;3.92;;;;;;;;;;518133;28;1382;-81
2022/05/31 00:43:11;;;;;;;5.63;4.40;;;;;;;;;;520428;28;1464;-81
2022/05/31 00:43:27;;;;;;;5.18;4.28;;;;;;;;;;520166;28;1573;-81
2022/05/31 00:43:42;;;;;;;5.07;4.18;;;;;;;;;;516401;28;1208;-81
2022/05/31 00:44:03;;;;;;;5.20;4.33;;;;;;;;;;516305;28;1582;-81
2022/05/31 00:44:26;;;;;;;5.30;4.50;;;;;;;;;;514485;28;1520;-82
2022/05/31 00:44:41;;;;;;;5.25;4.40;;;;;;;;;;513896;28;1386;-82
2022/05/31 00:44:57;;;;;;;4.65;4.20;;;;;;;;;;514653;28;1016;-82
2022/05/31 00:45:12;;;;;;;5.30;4.30;;;;;;;;;;516337;28;833;-81
2022/05/31 00:45:43;;;;;;;5.28;4.30;;;;;;;;;;514264;28;1197;-81
2022/05/31 00:46:00;;;;;;;4.68;4.20;;;;;;;;;;514113;28;1276;-81
2022/05/31 00:46:17;;;;;;;5.30;4.38;;;;;;;;;;515983;28;1252;-81
2022/05/31 00:46:53;;;;;;;5.65;4.45;;;;;;;;;;515267;28;1291;-81
2022/05/31 00:47:14;;;;;;;6.00;4.30;;;;;;;;;;517746;28;976;-82
2022/05/31 00:47:33;;;;;;;5.40;4.43;;;;;;;;;;518215;28;1299;-82
2022/05/31 00:47:49;;;;;;;5.28;4.20;;;;;;;;;;518698;28;1048;-82
2022/05/31 00:48:11;;;;;;;5.80;4.20;;;;;;;;;;518164;28;1156;-82
2022/05/31 00:48:35;;;;;;;5.93;4.25;;;;;;;;;;518214;28;1298;-82
2022/05/31 00:48:57;;;;;;;4.80;4.28;;;;;;;;;;516182;28;1332;-81
2022/05/31 00:49:18;;;;;;;5.53;4.38;;;;;;;;;;516419;28;846;-82
2022/05/31 00:49:36;;;;;;;5.85;4.22;;;;;;;;;;518589;28;953;-82
2022/05/31 00:50:08;;;;;;;4.88;3.90;;;;;;;;;;516783;28;1577;-82
2022/05/31 00:50:30;;;;;;;4.88;4.28;;;;;;;;;;517887;28;1362;-82
2022/05/31 00:51:07;;;;;;;5.00;4.30;;;;;;;;;;517623;28;1361;-83
2022/05/31 00:51:25;;;;;;;5.18;4.22;;;;;;;;;;518415;28;1263;-82
2022/05/31 00:51:46;;;;;;;5.13;4.32;;;;;;;;;;518701;28;984;-82
2022/05/31 00:52:17;;;;;;;4.70;4.00;;;;;;;;;;518562;28;897;-82
2022/05/31 00:52:42;;;;;;;5.15;4.20;;;;;;;;;;518368;28;1285;-81
2022/05/31 00:53:02;;;;;;;5.00;4.18;;;;;;;;;;520468;28;845;-82
2022/05/31 00:53:26;;;;;;;5.75;4.30;;;;;;;;;;520371;28;1499;-82
2022/05/31 00:53:47;;;;;;;6.03;4.30;;;;;;;;;;520088;28;940;-81
2022/05/31 00:54:07;;;;;;;5.20;4.30;;;;;;;;;;517934;28;1910;-81
2022/05/31 00:54:26;;;;;;;5.25;4.30;;;;;;;;;;518959;28;933;-82
2022/05/31 00:54:48;;;;;;;5.72;4.20;;;;;;;;;;520581;28;1126;-81
2022/05/31 00:55:12;;;;;;;5.97;4.50;;;;;;;;;;518328;28;1263;-81
2022/05/31 00:55:33;;;;;;;4.70;4.18;;;;;;;;;;518210;28;1419;-82
2022/05/31 00:55:53;;;;;;;5.20;4.10;;;;;;;;;;516022;28;1524;-82
2022/05/31 00:56:21;;;;;;;5.47;4.30;;;;;;;;;;516376;28;1256;-82
2022/05/31 00:56:36;;;;;;;4.82;4.32;;;;;;;;;;516425;28;866;-82
2022/05/31 00:56:54;;;;;;;5.37;4.37;;;;;;;;;;516912;28;850;-82
2022/05/31 00:57:10;;;;;;;5.70;4.53;;;;;;;;;;516347;28;1405;-82
2022/05/31 00:57:27;;;;;;;5.35;4.35;;;;;;;;;;518023;28;1033;-81
2022/05/31 00:57:49;;;;;;;5.05;4.13;;;;;;;;;;517212;28;1449;-81
2022/05/31 00:58:11;;;;;;;5.25;4.20;;;;;;;;;;516195;28;984;-81
2022/05/31 00:58:37;;;;;;;5.82;4.38;;;;;;;;;;516851;28;912;-81
2022/05/31 00:58:59;;;;;;;6.03;4.40;;;;;;;;;;516395;28;1236;-82
2022/05/31 00:59:21;;;;;;;5.63;4.60;;;;;;;;;;518393;28;838;-81
2022/05/31 00:59:48;;;;;;;5.22;4.63;;;;;;;;;;519501;28;1107;-81
2022/05/31 01:00:09;;;;;;;5.50;4.40;;;;;;;;;;520148;28;1349;-82
2022/05/31 01:00:24;;;;;;;5.60;4.47;;;;;;;;;;518374;28;1320;-81
2022/05/31 01:00:41;;;;;;;5.27;4.30;;;;;;;;;;518666;28;1357;-81
2022/05/31 01:01:00;;;;;;;7.72;4.40;;;;;;;;;;520502;28;1333;-82
2022/05/31 01:01:17;;;;;;;8.35;4.55;;;;;;;;;;520528;28;1345;-82
2022/05/31 01:01:36;;;;;;;7.32;4.70;;;;;;;;;;520551;28;961;-82
2022/05/31 01:01:54;;;;;;;5.43;4.40;;;;;;;;;;518403;28;1246;-82
2022/05/31 01:02:09;;;;;;;5.13;4.60;;;;;;;;;;516296;28;1240;-81
2022/05/31 01:02:25;;;;;;;5.63;4.65;;;;;;;;;;518208;28;1213;-82
2022/05/31 01:02:43;;;;;;;5.43;4.40;;;;;;;;;;516073;28;1342;-82
2022/05/31 01:03:00;;;;;;;5.05;4.43;;;;;;;;;;514182;28;1332;-81
2022/05/31 01:03:19;;;;;;;4.80;4.30;;;;;;;;;;514212;28;1343;-82
2022/05/31 01:03:37;;;;;;;5.80;4.22;;;;;;;;;;514203;28;1395;-82
2022/05/31 01:03:54;;;;;;;6.15;4.22;;;;;;;;;;514410;28;1313;-81
2022/05/31 01:04:10;;;;;;;5.47;4.50;;;;;;;;;;514406;28;1225;-81
2022/05/31 01:04:40;;;;;;;5.90;4.78;;;;;;;;;;514537;28;941;-81
2022/05/31 01:04:59;;;;;;;5.80;4.70;;;;;;;;;;517769;28;949;-81
2022/05/31 01:05:15;;;;;;;5.85;4.70;;;;;;;;;;520242;28;1443;-81
2022/05/31 01:05:31;;;;;;;5.65;4.40;;;;;;;;;;521743;28;833;-81
2022/05/31 01:05:46;;;;;;;5.83;4.57;;;;;;;;;;520313;28;1194;-81
2022/05/31 01:06:02;;;;;;;5.30;4.60;;;;;;;;;;520348;28;1172;-81
2022/05/31 01:06:19;;;;;;;5.38;4.38;;;;;;;;;;520179;28;1242;-81
2022/05/31 01:06:36;;;;;;;5.70;4.50;;;;;;;;;;520555;28;1382;-81
2022/05/31 01:06:55;;;;;;;6.18;4.70;;;;;;;;;;520511;28;897;-81
2022/05/31 01:07:11;;;;;;;5.43;4.30;;;;;;;;;;520590;28;1287;-81
2022/05/31 01:07:27;;;;;;;4.60;4.10;;;;;;;;;;518575;28;1137;-81
2022/05/31 01:07:42;;;;;;;5.57;4.28;;;;;;;;;;518429;28;1079;-81
2022/05/31 01:07:58;;;;;;;5.95;4.32;;;;;;;;;;516480;28;1249;-81
2022/05/31 01:08:14;;;;;;;5.47;4.37;;;;;;;;;;516335;28;1099;-81
2022/05/31 01:08:29;;;;;;;5.30;4.32;;;;;;;;;;515666;28;1418;-81
2022/05/31 01:08:46;;;;;;;5.50;4.50;;;;;;;;;;516532;28;902;-81
2022/05/31 01:09:02;;;;;;;5.72;4.60;;;;;;;;;;516667;28;965;-81
2022/05/31 01:09:17;;;;;;;5.68;4.47;;;;;;;;;;516854;28;1407;-81
2022/05/31 01:09:33;;;;;;;5.10;4.23;;;;;;;;;;518436;28;823;-81
2022/05/31 01:09:49;;;;;;;4.73;4.20;;;;;;;;;;519064;28;913;-81
2022/05/31 01:10:09;;;;;;;5.00;4.37;;;;;;;;;;520441;28;885;-81
2022/05/31 01:10:25;;;;;;;5.03;4.20;;;;;;;;;;519649;28;1017;-81
2022/05/31 01:10:42;;;;;;;5.47;4.40;;;;;;;;;;518409;28;1281;-82
2022/05/31 01:10:57;;;;;;;5.47;4.47;;;;;;;;;;518590;28;889;-82
2022/05/31 01:11:17;;;;;;;5.32;4.40;;;;;;;;;;518339;28;1195;-81
2022/05/31 01:11:38;;;;;;;5.93;4.70;;;;;;;;;;518455;28;1067;-81
2022/05/31 01:11:56;;;;;;;5.88;4.45;;;;;;;;;;518385;28;865;-81
2022/05/31 01:12:13;;;;;;;6.15;4.45;;;;;;;;;;516385;28;1521;-81
2022/05/31 01:12:28;;;;;;;6.35;4.45;;;;;;;;;;518476;28;1122;-84
2022/05/31 01:12:46;;;;;;;5.80;4.40;;;;;;;;;;520560;28;905;-82
2022/05/31 01:13:03;;;;;;;5.47;4.32;;;;;;;;;;520825;28;1150;-82
2022/05/31 01:13:18;;;;;;;5.32;4.32;;;;;;;;;;520335;28;1317;-82
2022/05/31 01:13:34;;;;;;;6.78;4.60;;;;;;;;;;520431;28;1244;-82
2022/05/31 01:13:49;;;;;;;6.23;4.43;;;;;;;;;;520371;28;893;-82
2022/05/31 01:14:06;;;;;;;4.82;4.20;;;;;;;;;;520262;28;1973;-81
2022/05/31 01:14:21;;;;;;;5.45;4.30;;;;;;;;;;520240;28;1411;-81
2022/05/31 01:14:38;;;;;;;5.70;4.20;;;;;;;;;;520063;28;881;-81
2022/05/31 01:14:53;;;;;;;5.25;4.00;;;;;;;;;;520085;28;1266;-81
2022/05/31 01:15:10;;;;;;;5.00;3.92;;;;;;;;;;520374;28;945;-81
2022/05/31 01:15:26;;;;;;;5.28;4.20;;;;;;;;;;520371;28;1090;-82
2022/05/31 01:15:42;;;;;;;5.17;4.27;;;;;;;;;;518321;28;1157;-81
2022/05/31 01:16:03;;;;;;;5.78;4.30;;;;;;;;;;517151;28;1255;-81
2022/05/31 01:16:19;;;;;;;6.30;4.53;;;;;;;;;;514276;28;1224;-81
2022/05/31 01:16:34;;;;;;;6.07;4.35;;;;;;;;;;514592;28;914;-81
2022/05/31 01:17:02;;;;;;;6.23;4.20;;;;;;;;;;515851;28;815;-81
2022/05/31 01:17:20;;;;;;;6.05;4.00;;;;;;;;;;514258;28;1001;-81
2022/05/31 01:17:35;;;;;;;5.47;4.07;;;;;;;;;;515275;28;1072;-81
2022/05/31 01:17:51;;;;;;;4.40;4.00;;;;;;;;;;516943;28;929;-81
2022/05/31 01:18:06;;;;;;;4.77;4.03;;;;;;;;;;516338;28;1185;-81
2022/05/31 01:18:21;;;;;;;5.00;4.18;;;;;;;;;;518241;28;1195;-81
2022/05/31 01:18:38;;;;;;;5.03;4.07;;;;;;;;;;516392;28;1228;-81
2022/05/31 01:18:53;;;;;;;5.22;4.07;;;;;;;;;;516408;28;1306;-81
2022/05/31 01:19:55;;;;;;;4.83;4.03;;;;;;;;;;516462;28;1270;-82
2022/05/31 01:20:01;;;;;;;5.15;3.92;;;;;;;;;;516136;28;893;-81
2022/05/31 01:20:19;;;;;;;4.80;4.03;;;;;;;;;;516090;28;1413;-82
2022/05/31 01:20:35;;;;;;;5.28;4.15;;;;;;;;;;515798;28;1411;-82
2022/05/31 01:20:50;;;;;;;5.75;4.35;;;;;;;;;;516295;28;1227;-82
2022/05/31 01:21:06;;;;;;;5.33;4.30;;;;;;;;;;517337;28;1126;-82
2022/05/31 01:21:23;;;;;;;5.10;4.20;;;;;;;;;;518193;28;949;-82
2022/05/31 01:21:38;;;;;;;4.53;4.00;;;;;;;;;;516111;28;1275;-82
2022/05/31 01:21:53;;;;;;;5.70;4.20;;;;;;;;;;516112;28;1178;-81
2022/05/31 01:22:09;;;;;;;6.77;4.63;;;;;;;;;;517000;28;1044;-82
2022/05/31 01:22:43;;;;;;;6.32;4.50;;;;;;;;;;516310;28;1318;-81
2022/05/31 01:23:15;;;;;;;4.57;3.92;;;;;;;;;;518546;28;1258;-81
2022/05/31 01:23:37;;;;;;;5.57;4.28;;;;;;;;;;516243;28;1240;-82
2022/05/31 01:24:06;;;;;;;4.60;4.00;;;;;;;;;;516053;28;1356;-81
2022/05/31 01:24:22;;;;;;;5.50;4.20;;;;;;;;;;517484;28;1425;-82
2022/05/31 01:25:01;;;;;;;5.45;4.20;;;;;;;;;;518462;28;1295;-84
2022/05/31 01:25:22;;;;;;;6.53;4.07;;;;;;;;;;520627;28;1103;-81
2022/05/31 01:25:49;;;;;;;4.60;4.10;;;;;;;;;;522748;28;842;-81
2022/05/31 01:26:21;;;;;;;4.85;4.00;;;;;;;;;;520575;28;989;-82
2022/05/31 01:27:04;;;;;;;5.55;4.30;;;;;;;;;;521100;28;1063;-82
2022/05/31 01:27:26;;;;;;;5.50;4.20;;;;;;;;;;522357;28;1306;-81
2022/05/31 01:28:05;;;;;;;5.25;4.20;;;;;;;;;;522381;28;1250;-81
2022/05/31 01:28:39;;;;;;;4.93;4.25;;;;;;;;;;522663;28;984;-81
2022/05/31 01:29:01;;;;;;;4.90;4.40;;;;;;;;;;522366;28;925;-81
2022/05/31 01:29:25;;;;;;;5.07;4.25;;;;;;;;;;520170;28;1532;-81
2022/05/31 01:29:41;;;;;;;5.25;4.40;;;;;;;;;;520420;28;1060;-81
2022/05/31 01:29:58;;;;;;;4.93;4.40;;;;;;;;;;518229;28;1175;-82
2022/05/31 01:30:14;;;;;;;5.07;4.40;;;;;;;;;;518177;28;1460;-81
2022/05/31 01:30:35;;;;;;;6.03;4.68;;;;;;;;;;516124;28;1485;-82
2022/05/31 01:30:54;;;;;;;5.00;4.40;;;;;;;;;;515408;28;1294;-81
2022/05/31 01:31:19;;;;;;;5.57;4.55;;;;;;;;;;516181;28;1439;-81
2022/05/31 01:31:41;;;;;;;6.97;4.60;;;;;;;;;;515988;28;862;-82
2022/05/31 01:32:00;;;;;;;5.60;4.53;;;;;;;;;;516327;28;928;-81
2022/05/31 01:32:16;;;;;;;5.40;4.60;;;;;;;;;;516208;28;964;-82
2022/05/31 01:32:32;;;;;;;5.88;4.60;;;;;;;;;;518278;28;1199;-82
2022/05/31 01:32:57;;;;;;;5.25;4.55;;;;;;;;;;519868;28;957;-81
2022/05/31 01:33:47;;;;;;;5.88;4.57;;;;;;;;;;520361;28;985;-82
2022/05/31 01:34:28;;;;;;;5.10;4.60;;;;;;;;;;520201;28;1907;-81
2022/05/31 01:34:48;;;;;;;6.50;4.75;;;;;;;;;;520236;28;953;-81
2022/05/31 01:35:10;;;;;;;5.22;4.63;;;;;;;;;;520339;28;933;-81
2022/05/31 01:35:30;;;;;;;4.68;4.28;;;;;;;;;;520037;28;1214;-81
2022/05/31 01:35:45;;;;;;;4.68;4.18;;;;;;;;;;520252;28;873;-81
2022/05/31 01:36:07;;;;;;;4.95;4.25;;;;;;;;;;518330;28;1176;-81
2022/05/31 01:36:30;;;;;;;5.35;4.45;;;;;;;;;;516021;28;1299;-81
2022/05/31 01:36:53;;;;;;;4.95;4.30;;;;;;;;;;516049;28;1375;-81
2022/05/31 01:37:08;;;;;;;5.47;4.50;;;;;;;;;;513960;28;1363;-81
2022/05/31 01:37:36;;;;;;;5.43;4.40;;;;;;;;;;515881;28;894;-81
2022/05/31 01:37:57;;;;;;;5.93;4.28;;;;;;;;;;516873;28;1310;-82
2022/05/31 01:38:21;;;;;;;5.80;4.18;;;;;;;;;;518839;28;905;-81
2022/05/31 01:38:53;;;;;;;6.38;4.70;;;;;;;;;;520491;28;932;-81
2022/05/31 01:39:19;;;;;;;4.82;4.32;;;;;;;;;;520636;28;1123;-81
2022/05/31 01:40:08;;;;;;;5.03;4.03;;;;;;;;;;519851;28;1367;-82
2022/05/31 01:40:50;;;;;;;5.05;4.03;;;;;;;;;;520282;28;984;-81
2022/05/31 01:41:19;;;;;;;5.70;4.22;;;;;;;;;;520443;28;944;-81
2022/05/31 01:41:43;;;;;;;4.90;4.30;;;;;;;;;;519789;28;1444;-81
2022/05/31 01:42:07;;;;;;;5.10;4.22;;;;;;;;;;520200;28;968;-81
2022/05/31 01:42:28;;;;;;;4.60;4.10;;;;;;;;;;520157;28;973;-81
2022/05/31 01:42:46;;;;;;;4.40;4.00;;;;;;;;;;518136;28;1076;-81
2022/05/31 01:43:02;;;;;;;4.82;4.10;;;;;;;;;;516147;28;1237;-81
2022/05/31 01:43:17;;;;;;;5.53;4.10;;;;;;;;;;516295;28;865;-81
2022/05/31 01:43:33;;;;;;;5.77;4.20;;;;;;;;;;515938;28;1261;-83
2022/05/31 01:43:51;;;;;;;5.80;4.13;;;;;;;;;;516239;28;1020;-81
2022/05/31 01:44:12;;;;;;;5.32;4.07;;;;;;;;;;516357;28;1330;-81
2022/05/31 01:44:32;;;;;;;5.50;4.20;;;;;;;;;;516304;28;1351;-81
2022/05/31 01:44:52;;;;;;;4.90;3.95;;;;;;;;;;518374;28;848;-82
2022/05/31 01:45:08;;;;;;;4.38;3.70;;;;;;;;;;520374;28;1117;-81
2022/05/31 01:45:29;;;;;;;4.40;3.67;;;;;;;;;;518745;28;1141;-81
2022/05/31 01:45:54;;;;;;;4.80;3.78;;;;;;;;;;520118;28;1298;-81
2022/05/31 01:46:15;;;;;;;4.70;4.07;;;;;;;;;;520162;28;1255;-81
2022/05/31 01:46:34;;;;;;;4.63;3.90;;;;;;;;;;518202;28;1263;-81
2022/05/31 01:46:52;;;;;;;4.57;3.60;;;;;;;;;;518082;28;1204;-81
2022/05/31 01:47:08;;;;;;;4.85;3.90;;;;;;;;;;518046;28;1021;-81
2022/05/31 01:47:24;;;;;;;4.43;4.00;;;;;;;;;;518331;28;1144;-82
2022/05/31 01:47:40;;;;;;;4.70;3.90;;;;;;;;;;516514;28;1312;-82
2022/05/31 01:48:00;;;;;;;5.82;3.85;;;;;;;;;;516348;28;1383;-81
2022/05/31 01:48:16;;;;;;;5.05;3.90;;;;;;;;;;514439;28;1212;-81
2022/05/31 01:48:35;;;;;;;4.53;3.78;;;;;;;;;;514355;28;1333;-82
2022/05/31 01:48:51;;;;;;;4.95;3.88;;;;;;;;;;514394;28;1344;-81
2022/05/31 01:49:10;;;;;;;4.95;3.88;;;;;;;;;;512251;29;1353;-81
2022/05/31 01:49:32;;;;;;;4.32;3.70;;;;;;;;;;514291;28;1409;-82
2022/05/31 01:49:52;;;;;;;5.60;4.10;;;;;;;;;;514281;28;1249;-82
2022/05/31 01:50:14;;;;;;;5.18;3.90;;;;;;;;;;515147;28;858;-81
2022/05/31 01:50:31;;;;;;;5.55;3.88;;;;;;;;;;517874;28;1027;-81
2022/05/31 01:50:46;;;;;;;4.97;4.20;;;;;;;;;;518381;28;987;-81
2022/05/31 01:51:03;;;;;;;5.33;4.10;;;;;;;;;;518434;28;881;-81
2022/05/31 01:51:19;;;;;;;5.47;3.90;;;;;;;;;;517359;28;1315;-81
2022/05/31 01:51:37;;;;;;;5.32;3.83;;;;;;;;;;518278;28;1350;-81
2022/05/31 01:51:53;;;;;;;5.45;4.03;;;;;;;;;;518642;28;869;-81
2022/05/31 01:52:09;;;;;;;5.83;3.93;;;;;;;;;;518308;28;894;-81
2022/05/31 01:52:26;;;;;;;6.43;3.92;;;;;;;;;;519719;28;858;-81
2022/05/31 01:52:42;;;;;;;5.95;4.07;;;;;;;;;;518440;28;1361;-81
2022/05/31 01:52:58;;;;;;;5.28;3.92;;;;;;;;;;518424;28;1297;-81
2022/05/31 01:53:15;;;;;;;5.18;4.00;;;;;;;;;;517764;28;1240;-81
2022/05/31 01:53:33;;;;;;;5.50;4.18;;;;;;;;;;516420;28;1455;-81
2022/05/31 01:53:49;;;;;;;5.85;4.00;;;;;;;;;;516458;28;898;-81
2022/05/31 01:54:05;;;;;;;5.55;4.00;;;;;;;;;;516133;28;2007;-81
2022/05/31 01:54:20;;;;;;;5.60;3.90;;;;;;;;;;516403;28;917;-81
2022/05/31 01:54:37;;;;;;;5.47;3.73;;;;;;;;;;517348;28;1261;-81
2022/05/31 01:54:53;;;;;;;5.40;3.80;;;;;;;;;;518197;28;1040;-81
2022/05/31 01:55:10;;;;;;;5.07;3.90;;;;;;;;;;519514;28;1394;-81
2022/05/31 01:55:26;;;;;;;4.60;4.00;;;;;;;;;;518284;28;1267;-81
2022/05/31 01:55:43;;;;;;;4.75;4.13;;;;;;;;;;518520;28;1288;-81
2022/05/31 01:55:59;;;;;;;4.82;4.20;;;;;;;;;;516319;28;1409;-81
2022/05/31 01:56:14;;;;;;;5.00;4.20;;;;;;;;;;516057;28;1275;-81